sensor_id;sensor_type;location;lat;lon;timestamp;P1;durP1;ratioP1;P2;durP2;ratioP2
17991;SDS011;9121;50.926;5.340;2023-05-25T00:00:18;16.73;;;5.50;;
17991;SDS011;9121;50.926;5.340;2023-05-25T00:02:45;12.50;;;5.30;;
17991;SDS011;9121;50.926;5.340;2023-05-25T00:05:12;18.77;;;5.67;;
17991;SDS011;9121;50.926;5.340;2023-05-25T00:07:43;17.20;;;5.73;;
17991;SDS011;9121;50.926;5.340;2023-05-25T00:10:10;23.97;;;6.43;;
17991;SDS011;9121;50.926;5.340;2023-05-25T00:12:37;14.82;;;6.35;;
17991;SDS011;9121;50.926;5.340;2023-05-25T00:15:05;19.43;;;6.13;;
17991;SDS011;9121;50.926;5.340;2023-05-25T00:17:32;23.50;;;5.83;;
17991;SDS011;9121;50.926;5.340;2023-05-25T00:20:01;18.25;;;5.90;;
17991;SDS011;9121;50.926;5.340;2023-05-25T00:22:33;14.47;;;6.47;;
17991;SDS011;9121;50.926;5.340;2023-05-25T00:25:02;15.95;;;5.60;;
17991;SDS011;9121;50.926;5.340;2023-05-25T00:27:29;19.67;;;6.30;;
17991;SDS011;9121;50.926;5.340;2023-05-25T00:29:56;17.10;;;6.10;;
17991;SDS011;9121;50.926;5.340;2023-05-25T00:32:23;18.23;;;6.00;;
17991;SDS011;9121;50.926;5.340;2023-05-25T00:34:50;17.47;;;6.27;;
17991;SDS011;9121;50.926;5.340;2023-05-25T00:37:17;16.10;;;5.80;;
17991;SDS011;9121;50.926;5.340;2023-05-25T00:39:44;15.93;;;6.43;;
17991;SDS011;9121;50.926;5.340;2023-05-25T00:42:12;22.35;;;6.75;;
17991;SDS011;9121;50.926;5.340;2023-05-25T00:44:39;15.87;;;6.03;;
17991;SDS011;9121;50.926;5.340;2023-05-25T00:47:07;15.13;;;5.97;;
17991;SDS011;9121;50.926;5.340;2023-05-25T00:49:34;12.03;;;6.07;;
17991;SDS011;9121;50.926;5.340;2023-05-25T00:52:01;13.60;;;5.97;;
17991;SDS011;9121;50.926;5.340;2023-05-25T00:54:29;15.53;;;6.70;;
17991;SDS011;9121;50.926;5.340;2023-05-25T00:56:59;19.10;;;7.33;;
17991;SDS011;9121;50.926;5.340;2023-05-25T00:59:31;26.10;;;7.53;;
17991;SDS011;9121;50.926;5.340;2023-05-25T01:02:01;19.10;;;6.57;;
17991;SDS011;9121;50.926;5.340;2023-05-25T01:04:31;16.03;;;6.10;;
17991;SDS011;9121;50.926;5.340;2023-05-25T01:07:01;20.77;;;6.30;;
17991;SDS011;9121;50.926;5.340;2023-05-25T01:09:29;18.30;;;6.70;;
17991;SDS011;9121;50.926;5.340;2023-05-25T01:12:01;18.77;;;6.83;;
17991;SDS011;9121;50.926;5.340;2023-05-25T01:14:28;16.57;;;6.10;;
17991;SDS011;9121;50.926;5.340;2023-05-25T01:16:58;13.47;;;6.07;;
17991;SDS011;9121;50.926;5.340;2023-05-25T01:19:27;20.60;;;6.73;;
17991;SDS011;9121;50.926;5.340;2023-05-25T01:22:00;17.17;;;6.90;;
17991;SDS011;9121;50.926;5.340;2023-05-25T01:24:32;22.77;;;6.37;;
17991;SDS011;9121;50.926;5.340;2023-05-25T01:27:07;20.03;;;6.80;;
17991;SDS011;9121;50.926;5.340;2023-05-25T01:29:39;23.97;;;7.63;;
17991;SDS011;9121;50.926;5.340;2023-05-25T01:32:09;16.33;;;6.63;;
17991;SDS011;9121;50.926;5.340;2023-05-25T01:34:37;21.60;;;6.87;;
17991;SDS011;9121;50.926;5.340;2023-05-25T01:37:08;15.63;;;6.90;;
17991;SDS011;9121;50.926;5.340;2023-05-25T01:39:37;20.30;;;7.40;;
17991;SDS011;9121;50.926;5.340;2023-05-25T01:42:04;19.37;;;6.77;;
17991;SDS011;9121;50.926;5.340;2023-05-25T01:44:31;21.97;;;7.00;;
17991;SDS011;9121;50.926;5.340;2023-05-25T01:47:00;20.37;;;7.07;;
17991;SDS011;9121;50.926;5.340;2023-05-25T01:49:31;29.37;;;6.73;;
17991;SDS011;9121;50.926;5.340;2023-05-25T01:52:09;18.37;;;6.83;;
17991;SDS011;9121;50.926;5.340;2023-05-25T01:54:43;17.83;;;7.67;;
17991;SDS011;9121;50.926;5.340;2023-05-25T01:57:16;26.87;;;6.73;;
17991;SDS011;9121;50.926;5.340;2023-05-25T01:59:45;18.07;;;7.20;;
17991;SDS011;9121;50.926;5.340;2023-05-25T02:02:13;18.20;;;6.70;;
17991;SDS011;9121;50.926;5.340;2023-05-25T02:04:41;20.07;;;6.83;;
17991;SDS011;9121;50.926;5.340;2023-05-25T02:07:10;27.07;;;7.43;;
17991;SDS011;9121;50.926;5.340;2023-05-25T02:09:38;18.00;;;6.43;;
17991;SDS011;9121;50.926;5.340;2023-05-25T02:12:05;18.90;;;7.10;;
17991;SDS011;9121;50.926;5.340;2023-05-25T02:14:32;18.33;;;7.17;;
17991;SDS011;9121;50.926;5.340;2023-05-25T02:16:59;18.70;;;7.43;;
17991;SDS011;9121;50.926;5.340;2023-05-25T02:19:27;15.60;;;6.80;;
17991;SDS011;9121;50.926;5.340;2023-05-25T02:21:55;20.37;;;6.60;;
17991;SDS011;9121;50.926;5.340;2023-05-25T02:24:23;16.43;;;6.33;;
17991;SDS011;9121;50.926;5.340;2023-05-25T02:26:50;23.40;;;7.97;;
17991;SDS011;9121;50.926;5.340;2023-05-25T02:29:17;22.30;;;7.57;;
17991;SDS011;9121;50.926;5.340;2023-05-25T02:31:44;17.50;;;6.67;;
17991;SDS011;9121;50.926;5.340;2023-05-25T02:34:11;21.10;;;7.93;;
17991;SDS011;9121;50.926;5.340;2023-05-25T02:36:39;18.97;;;6.90;;
17991;SDS011;9121;50.926;5.340;2023-05-25T02:39:07;18.13;;;7.80;;
17991;SDS011;9121;50.926;5.340;2023-05-25T02:41:36;19.70;;;7.77;;
17991;SDS011;9121;50.926;5.340;2023-05-25T02:44:04;22.87;;;7.30;;
17991;SDS011;9121;50.926;5.340;2023-05-25T02:46:31;18.83;;;7.23;;
17991;SDS011;9121;50.926;5.340;2023-05-25T02:48:58;19.73;;;7.83;;
17991;SDS011;9121;50.926;5.340;2023-05-25T02:51:25;16.73;;;7.40;;
17991;SDS011;9121;50.926;5.340;2023-05-25T02:53:52;22.77;;;8.10;;
17991;SDS011;9121;50.926;5.340;2023-05-25T02:56:19;20.47;;;7.73;;
17991;SDS011;9121;50.926;5.340;2023-05-25T02:58:48;22.40;;;7.60;;
17991;SDS011;9121;50.926;5.340;2023-05-25T03:01:15;19.67;;;7.77;;
17991;SDS011;9121;50.926;5.340;2023-05-25T03:03:43;21.17;;;8.40;;
17991;SDS011;9121;50.926;5.340;2023-05-25T03:06:11;19.03;;;7.63;;
17991;SDS011;9121;50.926;5.340;2023-05-25T03:08:38;18.40;;;7.97;;
17991;SDS011;9121;50.926;5.340;2023-05-25T03:11:05;24.83;;;7.93;;
17991;SDS011;9121;50.926;5.340;2023-05-25T03:13:32;18.60;;;8.47;;
17991;SDS011;9121;50.926;5.340;2023-05-25T03:16:01;18.27;;;8.13;;
17991;SDS011;9121;50.926;5.340;2023-05-25T03:18:28;24.27;;;7.63;;
17991;SDS011;9121;50.926;5.340;2023-05-25T03:20:55;19.97;;;7.70;;
17991;SDS011;9121;50.926;5.340;2023-05-25T03:23:21;21.03;;;8.00;;
17991;SDS011;9121;50.926;5.340;2023-05-25T03:25:48;20.93;;;9.00;;
17991;SDS011;9121;50.926;5.340;2023-05-25T03:28:15;19.53;;;7.90;;
17991;SDS011;9121;50.926;5.340;2023-05-25T03:30:42;23.33;;;8.93;;
17991;SDS011;9121;50.926;5.340;2023-05-25T03:33:11;24.37;;;7.97;;
17991;SDS011;9121;50.926;5.340;2023-05-25T03:35:38;23.57;;;8.67;;
17991;SDS011;9121;50.926;5.340;2023-05-25T03:38:05;26.17;;;9.17;;
17991;SDS011;9121;50.926;5.340;2023-05-25T03:40:32;23.03;;;8.23;;
17991;SDS011;9121;50.926;5.340;2023-05-25T03:42:59;26.03;;;9.67;;
17991;SDS011;9121;50.926;5.340;2023-05-25T03:45:26;24.73;;;8.97;;
17991;SDS011;9121;50.926;5.340;2023-05-25T03:47:53;21.93;;;8.73;;
17991;SDS011;9121;50.926;5.340;2023-05-25T03:50:21;23.87;;;8.77;;
17991;SDS011;9121;50.926;5.340;2023-05-25T03:52:48;17.93;;;8.63;;
17991;SDS011;9121;50.926;5.340;2023-05-25T03:55:15;27.20;;;8.83;;
17991;SDS011;9121;50.926;5.340;2023-05-25T03:57:43;29.00;;;9.30;;
17991;SDS011;9121;50.926;5.340;2023-05-25T04:00:11;21.17;;;9.93;;
17991;SDS011;9121;50.926;5.340;2023-05-25T04:02:38;23.23;;;8.87;;
17991;SDS011;9121;50.926;5.340;2023-05-25T04:05:06;19.00;;;8.43;;
17991;SDS011;9121;50.926;5.340;2023-05-25T04:07:34;26.73;;;8.90;;
17991;SDS011;9121;50.926;5.340;2023-05-25T04:10:02;22.93;;;8.93;;
17991;SDS011;9121;50.926;5.340;2023-05-25T04:12:29;25.33;;;9.67;;
17991;SDS011;9121;50.926;5.340;2023-05-25T04:14:56;18.63;;;8.63;;
17991;SDS011;9121;50.926;5.340;2023-05-25T04:17:23;25.77;;;9.20;;
17991;SDS011;9121;50.926;5.340;2023-05-25T04:19:50;17.57;;;8.97;;
17991;SDS011;9121;50.926;5.340;2023-05-25T04:22:17;28.47;;;9.47;;
17991;SDS011;9121;50.926;5.340;2023-05-25T04:24:47;19.07;;;8.67;;
17991;SDS011;9121;50.926;5.340;2023-05-25T04:27:14;25.97;;;9.80;;
17991;SDS011;9121;50.926;5.340;2023-05-25T04:29:41;28.03;;;9.50;;
17991;SDS011;9121;50.926;5.340;2023-05-25T04:32:08;24.87;;;9.50;;
17991;SDS011;9121;50.926;5.340;2023-05-25T04:34:38;26.90;;;9.03;;
17991;SDS011;9121;50.926;5.340;2023-05-25T04:37:06;23.57;;;9.20;;
17991;SDS011;9121;50.926;5.340;2023-05-25T04:39:33;24.40;;;8.80;;
17991;SDS011;9121;50.926;5.340;2023-05-25T04:42:01;22.53;;;10.33;;
17991;SDS011;9121;50.926;5.340;2023-05-25T04:44:30;32.03;;;10.50;;
17991;SDS011;9121;50.926;5.340;2023-05-25T04:46:57;28.53;;;10.10;;
17991;SDS011;9121;50.926;5.340;2023-05-25T04:49:25;26.17;;;9.40;;
17991;SDS011;9121;50.926;5.340;2023-05-25T04:51:52;25.63;;;9.53;;
17991;SDS011;9121;50.926;5.340;2023-05-25T04:54:19;23.43;;;9.03;;
17991;SDS011;9121;50.926;5.340;2023-05-25T04:56:47;26.37;;;9.63;;
17991;SDS011;9121;50.926;5.340;2023-05-25T04:59:15;19.10;;;9.43;;
17991;SDS011;9121;50.926;5.340;2023-05-25T05:01:42;24.67;;;10.37;;
17991;SDS011;9121;50.926;5.340;2023-05-25T05:04:09;24.17;;;8.73;;
17991;SDS011;9121;50.926;5.340;2023-05-25T05:06:36;30.70;;;10.40;;
17991;SDS011;9121;50.926;5.340;2023-05-25T05:09:04;22.50;;;10.10;;
17991;SDS011;9121;50.926;5.340;2023-05-25T05:11:31;25.80;;;11.10;;
17991;SDS011;9121;50.926;5.340;2023-05-25T05:13:58;25.57;;;10.27;;
17991;SDS011;9121;50.926;5.340;2023-05-25T05:16:26;17.33;;;9.10;;
17991;SDS011;9121;50.926;5.340;2023-05-25T05:18:57;22.60;;;9.13;;
17991;SDS011;9121;50.926;5.340;2023-05-25T05:21:24;28.97;;;9.73;;
17991;SDS011;9121;50.926;5.340;2023-05-25T05:23:51;28.17;;;9.63;;
17991;SDS011;9121;50.926;5.340;2023-05-25T05:26:18;22.10;;;8.67;;
17991;SDS011;9121;50.926;5.340;2023-05-25T05:28:45;26.37;;;9.90;;
17991;SDS011;9121;50.926;5.340;2023-05-25T05:31:12;19.13;;;9.10;;
17991;SDS011;9121;50.926;5.340;2023-05-25T05:33:42;21.97;;;8.50;;
17991;SDS011;9121;50.926;5.340;2023-05-25T05:36:09;27.60;;;10.17;;
17991;SDS011;9121;50.926;5.340;2023-05-25T05:38:36;30.30;;;10.47;;
17991;SDS011;9121;50.926;5.340;2023-05-25T05:41:05;27.50;;;9.83;;
17991;SDS011;9121;50.926;5.340;2023-05-25T05:43:37;21.33;;;9.00;;
17991;SDS011;9121;50.926;5.340;2023-05-25T05:46:06;25.73;;;8.67;;
17991;SDS011;9121;50.926;5.340;2023-05-25T05:48:33;19.40;;;8.60;;
17991;SDS011;9121;50.926;5.340;2023-05-25T05:51:02;30.00;;;9.77;;
17991;SDS011;9121;50.926;5.340;2023-05-25T05:53:29;20.20;;;8.43;;
17991;SDS011;9121;50.926;5.340;2023-05-25T05:55:56;23.43;;;9.87;;
17991;SDS011;9121;50.926;5.340;2023-05-25T05:58:24;25.40;;;9.53;;
17991;SDS011;9121;50.926;5.340;2023-05-25T06:00:51;23.13;;;9.00;;
17991;SDS011;9121;50.926;5.340;2023-05-25T06:03:20;19.47;;;9.57;;
17991;SDS011;9121;50.926;5.340;2023-05-25T06:05:47;28.47;;;10.57;;
17991;SDS011;9121;50.926;5.340;2023-05-25T06:08:15;26.73;;;9.77;;
17991;SDS011;9121;50.926;5.340;2023-05-25T06:10:43;29.57;;;10.27;;
17991;SDS011;9121;50.926;5.340;2023-05-25T06:13:10;27.05;;;10.00;;
17991;SDS011;9121;50.926;5.340;2023-05-25T06:15:37;30.60;;;10.93;;
17991;SDS011;9121;50.926;5.340;2023-05-25T06:18:05;25.83;;;10.40;;
17991;SDS011;9121;50.926;5.340;2023-05-25T06:20:33;28.88;;;10.57;;
17991;SDS011;9121;50.926;5.340;2023-05-25T06:23:00;34.50;;;10.75;;
17991;SDS011;9121;50.926;5.340;2023-05-25T06:25:28;21.42;;;9.65;;
17991;SDS011;9121;50.926;5.340;2023-05-25T06:27:55;26.88;;;9.68;;
17991;SDS011;9121;50.926;5.340;2023-05-25T06:30:23;39.15;;;10.13;;
17991;SDS011;9121;50.926;5.340;2023-05-25T06:32:49;26.83;;;11.43;;
17991;SDS011;9121;50.926;5.340;2023-05-25T06:35:16;26.27;;;10.18;;
17991;SDS011;9121;50.926;5.340;2023-05-25T06:37:45;27.10;;;10.73;;
17991;SDS011;9121;50.926;5.340;2023-05-25T06:40:12;23.38;;;10.43;;
17991;SDS011;9121;50.926;5.340;2023-05-25T06:42:41;24.73;;;10.18;;
17991;SDS011;9121;50.926;5.340;2023-05-25T06:45:08;27.75;;;11.27;;
17991;SDS011;9121;50.926;5.340;2023-05-25T06:47:36;29.65;;;10.73;;
17991;SDS011;9121;50.926;5.340;2023-05-25T06:50:03;26.42;;;9.90;;
17991;SDS011;9121;50.926;5.340;2023-05-25T06:52:31;30.15;;;10.43;;
17991;SDS011;9121;50.926;5.340;2023-05-25T06:54:58;27.75;;;11.07;;
17991;SDS011;9121;50.926;5.340;2023-05-25T06:57:24;32.80;;;10.63;;
17991;SDS011;9121;50.926;5.340;2023-05-25T06:59:53;37.58;;;11.55;;
17991;SDS011;9121;50.926;5.340;2023-05-25T07:02:20;24.05;;;11.25;;
17991;SDS011;9121;50.926;5.340;2023-05-25T07:04:47;30.23;;;11.02;;
17991;SDS011;9121;50.926;5.340;2023-05-25T07:07:14;27.00;;;13.43;;
17991;SDS011;9121;50.926;5.340;2023-05-25T07:09:41;29.60;;;12.35;;
17991;SDS011;9121;50.926;5.340;2023-05-25T07:12:08;34.75;;;13.77;;
17991;SDS011;9121;50.926;5.340;2023-05-25T07:14:35;39.70;;;12.68;;
17991;SDS011;9121;50.926;5.340;2023-05-25T07:17:04;31.67;;;12.75;;
17991;SDS011;9121;50.926;5.340;2023-05-25T07:19:31;29.17;;;12.02;;
17991;SDS011;9121;50.926;5.340;2023-05-25T07:21:58;36.72;;;13.15;;
17991;SDS011;9121;50.926;5.340;2023-05-25T07:24:25;29.20;;;11.48;;
17991;SDS011;9121;50.926;5.340;2023-05-25T07:26:52;28.73;;;12.00;;
17991;SDS011;9121;50.926;5.340;2023-05-25T07:29:19;37.72;;;12.05;;
17991;SDS011;9121;50.926;5.340;2023-05-25T07:31:46;30.23;;;11.05;;
17991;SDS011;9121;50.926;5.340;2023-05-25T07:34:14;30.85;;;11.15;;
17991;SDS011;9121;50.926;5.340;2023-05-25T07:36:41;29.25;;;12.05;;
17991;SDS011;9121;50.926;5.340;2023-05-25T07:39:08;39.90;;;12.32;;
17991;SDS011;9121;50.926;5.340;2023-05-25T07:41:35;21.05;;;9.43;;
17991;SDS011;9121;50.926;5.340;2023-05-25T07:44:03;28.60;;;11.07;;
17991;SDS011;9121;50.926;5.340;2023-05-25T07:46:30;36.33;;;10.95;;
17991;SDS011;9121;50.926;5.340;2023-05-25T07:48:57;24.63;;;9.75;;
17991;SDS011;9121;50.926;5.340;2023-05-25T07:51:25;23.48;;;9.63;;
17991;SDS011;9121;50.926;5.340;2023-05-25T07:53:55;28.25;;;10.45;;
17991;SDS011;9121;50.926;5.340;2023-05-25T07:56:22;35.20;;;9.63;;
17991;SDS011;9121;50.926;5.340;2023-05-25T07:58:50;30.15;;;9.55;;
17991;SDS011;9121;50.926;5.340;2023-05-25T08:01:17;21.55;;;8.32;;
17991;SDS011;9121;50.926;5.340;2023-05-25T08:03:44;24.02;;;8.65;;
17991;SDS011;9121;50.926;5.340;2023-05-25T08:06:11;23.35;;;9.18;;
17991;SDS011;9121;50.926;5.340;2023-05-25T08:08:39;20.88;;;8.95;;
17991;SDS011;9121;50.926;5.340;2023-05-25T08:11:09;22.92;;;9.43;;
17991;SDS011;9121;50.926;5.340;2023-05-25T08:13:36;29.85;;;9.25;;
17991;SDS011;9121;50.926;5.340;2023-05-25T08:16:03;24.45;;;9.82;;
17991;SDS011;9121;50.926;5.340;2023-05-25T08:18:30;27.55;;;9.95;;
17991;SDS011;9121;50.926;5.340;2023-05-25T08:20:57;25.80;;;9.45;;
17991;SDS011;9121;50.926;5.340;2023-05-25T08:23:25;21.65;;;9.60;;
17991;SDS011;9121;50.926;5.340;2023-05-25T08:25:53;24.23;;;9.48;;
17991;SDS011;9121;50.926;5.340;2023-05-25T08:28:20;22.13;;;9.40;;
17991;SDS011;9121;50.926;5.340;2023-05-25T08:30:47;27.13;;;9.43;;
17991;SDS011;9121;50.926;5.340;2023-05-25T08:33:15;30.75;;;10.25;;
17991;SDS011;9121;50.926;5.340;2023-05-25T08:35:42;23.95;;;10.73;;
17991;SDS011;9121;50.926;5.340;2023-05-25T08:38:09;25.98;;;9.85;;
17991;SDS011;9121;50.926;5.340;2023-05-25T08:40:36;25.98;;;9.57;;
17991;SDS011;9121;50.926;5.340;2023-05-25T08:43:09;26.27;;;8.35;;
17991;SDS011;9121;50.926;5.340;2023-05-25T08:45:36;20.98;;;8.38;;
17991;SDS011;9121;50.926;5.340;2023-05-25T08:48:03;27.35;;;9.23;;
17991;SDS011;9121;50.926;5.340;2023-05-25T08:50:36;24.50;;;8.48;;
17991;SDS011;9121;50.926;5.340;2023-05-25T08:53:05;26.75;;;8.80;;
17991;SDS011;9121;50.926;5.340;2023-05-25T08:55:36;26.77;;;8.30;;
17991;SDS011;9121;50.926;5.340;2023-05-25T08:58:12;25.40;;;8.05;;
17991;SDS011;9121;50.926;5.340;2023-05-25T09:00:43;27.92;;;8.43;;
17991;SDS011;9121;50.926;5.340;2023-05-25T09:03:15;21.60;;;7.90;;
17991;SDS011;9121;50.926;5.340;2023-05-25T09:05:42;24.00;;;7.18;;
17991;SDS011;9121;50.926;5.340;2023-05-25T09:08:10;22.92;;;8.45;;
17991;SDS011;9121;50.926;5.340;2023-05-25T09:10:37;22.75;;;6.78;;
17991;SDS011;9121;50.926;5.340;2023-05-25T09:13:04;16.23;;;5.95;;
17991;SDS011;9121;50.926;5.340;2023-05-25T09:15:32;22.38;;;6.40;;
17991;SDS011;9121;50.926;5.340;2023-05-25T09:18:00;12.73;;;6.20;;
17991;SDS011;9121;50.926;5.340;2023-05-25T09:20:27;15.70;;;6.15;;
17991;SDS011;9121;50.926;5.340;2023-05-25T09:22:56;18.83;;;6.07;;
17991;SDS011;9121;50.926;5.340;2023-05-25T09:25:24;19.33;;;6.90;;
17991;SDS011;9121;50.926;5.340;2023-05-25T09:27:52;20.35;;;6.47;;
17991;SDS011;9121;50.926;5.340;2023-05-25T09:30:22;20.73;;;7.13;;
17991;SDS011;9121;50.926;5.340;2023-05-25T09:32:51;26.45;;;7.55;;
17991;SDS011;9121;50.926;5.340;2023-05-25T09:35:18;20.63;;;6.95;;
17991;SDS011;9121;50.926;5.340;2023-05-25T09:37:47;21.65;;;6.82;;
17991;SDS011;9121;50.926;5.340;2023-05-25T09:40:14;17.77;;;6.95;;
17991;SDS011;9121;50.926;5.340;2023-05-25T09:42:41;16.90;;;6.65;;
17991;SDS011;9121;50.926;5.340;2023-05-25T09:45:08;14.35;;;5.75;;
17991;SDS011;9121;50.926;5.340;2023-05-25T09:47:35;13.55;;;5.15;;
17991;SDS011;9121;50.926;5.340;2023-05-25T09:50:04;54.05;;;8.73;;
17991;SDS011;9121;50.926;5.340;2023-05-25T09:52:32;22.08;;;5.72;;
17991;SDS011;9121;50.926;5.340;2023-05-25T09:54:59;24.15;;;6.03;;
17991;SDS011;9121;50.926;5.340;2023-05-25T09:57:27;14.93;;;5.75;;
17991;SDS011;9121;50.926;5.340;2023-05-25T09:59:54;16.48;;;4.88;;
17991;SDS011;9121;50.926;5.340;2023-05-25T10:02:22;19.88;;;5.60;;
17991;SDS011;9121;50.926;5.340;2023-05-25T10:04:49;32.85;;;6.68;;
17991;SDS011;9121;50.926;5.340;2023-05-25T10:07:17;14.80;;;5.32;;
17991;SDS011;9121;50.926;5.340;2023-05-25T10:09:44;13.38;;;4.53;;
17991;SDS011;9121;50.926;5.340;2023-05-25T10:12:12;13.90;;;4.93;;
17991;SDS011;9121;50.926;5.340;2023-05-25T10:14:44;12.50;;;4.22;;
17991;SDS011;9121;50.926;5.340;2023-05-25T10:17:12;31.58;;;4.85;;
17991;SDS011;9121;50.926;5.340;2023-05-25T10:19:44;12.73;;;4.75;;
17991;SDS011;9121;50.926;5.340;2023-05-25T10:22:18;16.05;;;5.25;;
17991;SDS011;9121;50.926;5.340;2023-05-25T10:24:48;12.25;;;4.43;;
17991;SDS011;9121;50.926;5.340;2023-05-25T10:27:21;16.63;;;4.35;;
17991;SDS011;9121;50.926;5.340;2023-05-25T10:29:50;18.80;;;5.32;;
17991;SDS011;9121;50.926;5.340;2023-05-25T10:32:18;12.10;;;4.97;;
17991;SDS011;9121;50.926;5.340;2023-05-25T10:34:46;25.23;;;4.63;;
17991;SDS011;9121;50.926;5.340;2023-05-25T10:37:17;9.73;;;4.60;;
17991;SDS011;9121;50.926;5.340;2023-05-25T10:39:45;20.88;;;5.75;;
17991;SDS011;9121;50.926;5.340;2023-05-25T10:42:13;14.93;;;5.15;;
17991;SDS011;9121;50.926;5.340;2023-05-25T10:44:42;14.48;;;5.03;;
17991;SDS011;9121;50.926;5.340;2023-05-25T10:47:10;14.85;;;4.97;;
17991;SDS011;9121;50.926;5.340;2023-05-25T10:49:49;11.80;;;5.13;;
17991;SDS011;9121;50.926;5.340;2023-05-25T10:52:19;14.20;;;4.95;;
17991;SDS011;9121;50.926;5.340;2023-05-25T10:54:47;25.95;;;5.25;;
17991;SDS011;9121;50.926;5.340;2023-05-25T10:57:17;14.73;;;4.93;;
17991;SDS011;9121;50.926;5.340;2023-05-25T10:59:49;12.43;;;4.82;;
17991;SDS011;9121;50.926;5.340;2023-05-25T11:02:19;15.38;;;4.70;;
17991;SDS011;9121;50.926;5.340;2023-05-25T11:04:48;15.70;;;4.70;;
17991;SDS011;9121;50.926;5.340;2023-05-25T11:07:16;15.75;;;4.35;;
17991;SDS011;9121;50.926;5.340;2023-05-25T11:09:55;13.13;;;4.38;;
17991;SDS011;9121;50.926;5.340;2023-05-25T11:12:23;9.75;;;4.78;;
17991;SDS011;9121;50.926;5.340;2023-05-25T11:15:07;20.60;;;4.90;;
17991;SDS011;9121;50.926;5.340;2023-05-25T11:17:43;22.08;;;5.15;;
17991;SDS011;9121;50.926;5.340;2023-05-25T11:20:19;15.38;;;4.43;;
17991;SDS011;9121;50.926;5.340;2023-05-25T11:22:49;10.65;;;4.53;;
17991;SDS011;9121;50.926;5.340;2023-05-25T11:25:37;30.90;;;5.18;;
17991;SDS011;9121;50.926;5.340;2023-05-25T11:28:05;16.05;;;4.63;;
17991;SDS011;9121;50.926;5.340;2023-05-25T11:30:35;7.57;;;4.03;;
17991;SDS011;9121;50.926;5.340;2023-05-25T11:33:03;13.50;;;4.32;;
17991;SDS011;9121;50.926;5.340;2023-05-25T11:35:31;5.78;;;3.25;;
17991;SDS011;9121;50.926;5.340;2023-05-25T11:38:01;8.68;;;3.38;;
17991;SDS011;9121;50.926;5.340;2023-05-25T11:40:31;11.70;;;4.60;;
17991;SDS011;9121;50.926;5.340;2023-05-25T11:43:00;12.18;;;4.05;;
17991;SDS011;9121;50.926;5.340;2023-05-25T11:45:28;16.70;;;3.50;;
17991;SDS011;9121;50.926;5.340;2023-05-25T11:47:56;18.88;;;4.18;;
17991;SDS011;9121;50.926;5.340;2023-05-25T11:50:23;7.88;;;3.05;;
17991;SDS011;9121;50.926;5.340;2023-05-25T11:52:52;12.27;;;4.22;;
17991;SDS011;9121;50.926;5.340;2023-05-25T11:55:19;9.95;;;3.20;;
17991;SDS011;9121;50.926;5.340;2023-05-25T11:57:47;16.88;;;4.25;;
17991;SDS011;9121;50.926;5.340;2023-05-25T12:00:26;10.48;;;3.95;;
17991;SDS011;9121;50.926;5.340;2023-05-25T12:02:53;82.35;;;8.65;;
17991;SDS011;9121;50.926;5.340;2023-05-25T12:05:21;13.15;;;4.32;;
17991;SDS011;9121;50.926;5.340;2023-05-25T12:07:48;8.30;;;4.03;;
17991;SDS011;9121;50.926;5.340;2023-05-25T12:10:16;11.27;;;4.10;;
17991;SDS011;9121;50.926;5.340;2023-05-25T12:12:43;10.35;;;4.28;;
17991;SDS011;9121;50.926;5.340;2023-05-25T12:15:11;8.63;;;3.70;;
17991;SDS011;9121;50.926;5.340;2023-05-25T12:17:41;12.98;;;3.63;;
17991;SDS011;9121;50.926;5.340;2023-05-25T12:20:10;15.38;;;3.38;;
17991;SDS011;9121;50.926;5.340;2023-05-25T12:22:39;10.27;;;3.80;;
17991;SDS011;9121;50.926;5.340;2023-05-25T12:25:08;12.95;;;4.80;;
17991;SDS011;9121;50.926;5.340;2023-05-25T12:27:36;28.42;;;4.47;;
17991;SDS011;9121;50.926;5.340;2023-05-25T12:30:04;29.55;;;4.20;;
17991;SDS011;9121;50.926;5.340;2023-05-25T12:32:33;10.45;;;3.22;;
17991;SDS011;9121;50.926;5.340;2023-05-25T12:35:02;15.57;;;3.90;;
17991;SDS011;9121;50.926;5.340;2023-05-25T12:37:30;18.00;;;4.93;;
17991;SDS011;9121;50.926;5.340;2023-05-25T12:39:57;14.50;;;5.03;;
17991;SDS011;9121;50.926;5.340;2023-05-25T12:42:24;14.30;;;5.75;;
17991;SDS011;9121;50.926;5.340;2023-05-25T12:44:53;10.75;;;4.22;;
17991;SDS011;9121;50.926;5.340;2023-05-25T12:47:22;27.95;;;5.82;;
17991;SDS011;9121;50.926;5.340;2023-05-25T12:49:52;24.50;;;5.35;;
17991;SDS011;9121;50.926;5.340;2023-05-25T12:52:37;16.05;;;4.47;;
17991;SDS011;9121;50.926;5.340;2023-05-25T12:55:17;12.25;;;5.15;;
17991;SDS011;9121;50.926;5.340;2023-05-25T12:57:45;18.90;;;5.22;;
17991;SDS011;9121;50.926;5.340;2023-05-25T13:00:16;10.35;;;4.70;;
17991;SDS011;9121;50.926;5.340;2023-05-25T13:02:44;31.77;;;5.45;;
17991;SDS011;9121;50.926;5.340;2023-05-25T13:05:21;11.68;;;5.55;;
17991;SDS011;9121;50.926;5.340;2023-05-25T13:07:51;15.10;;;4.95;;
17991;SDS011;9121;50.926;5.340;2023-05-25T13:10:20;12.15;;;4.43;;
17991;SDS011;9121;50.926;5.340;2023-05-25T13:12:47;11.90;;;4.70;;
17991;SDS011;9121;50.926;5.340;2023-05-25T13:15:17;16.88;;;5.22;;
17991;SDS011;9121;50.926;5.340;2023-05-25T13:17:45;20.58;;;5.30;;
17991;SDS011;9121;50.926;5.340;2023-05-25T13:20:13;19.83;;;4.53;;
17991;SDS011;9121;50.926;5.340;2023-05-25T13:22:40;13.23;;;4.57;;
17991;SDS011;9121;50.926;5.340;2023-05-25T13:25:10;12.65;;;4.38;;
17991;SDS011;9121;50.926;5.340;2023-05-25T13:27:41;20.25;;;4.65;;
17991;SDS011;9121;50.926;5.340;2023-05-25T13:30:09;11.15;;;4.72;;
17991;SDS011;9121;50.926;5.340;2023-05-25T13:32:37;12.85;;;3.88;;
17991;SDS011;9121;50.926;5.340;2023-05-25T13:35:04;16.88;;;5.65;;
17991;SDS011;9121;50.926;5.340;2023-05-25T13:37:32;16.63;;;3.92;;
17991;SDS011;9121;50.926;5.340;2023-05-25T13:39:59;25.40;;;5.13;;
17991;SDS011;9121;50.926;5.340;2023-05-25T13:42:28;13.10;;;4.78;;
17991;SDS011;9121;50.926;5.340;2023-05-25T13:44:56;18.95;;;4.00;;
17991;SDS011;9121;50.926;5.340;2023-05-25T13:47:23;11.20;;;4.10;;
17991;SDS011;9121;50.926;5.340;2023-05-25T13:49:50;8.77;;;3.90;;
17991;SDS011;9121;50.926;5.340;2023-05-25T13:52:17;10.32;;;4.07;;
17991;SDS011;9121;50.926;5.340;2023-05-25T13:54:44;13.50;;;4.93;;
17991;SDS011;9121;50.926;5.340;2023-05-25T13:57:11;14.10;;;5.18;;
17991;SDS011;9121;50.926;5.340;2023-05-25T13:59:39;15.18;;;5.63;;
17991;SDS011;9121;50.926;5.340;2023-05-25T14:02:06;14.60;;;5.85;;
17991;SDS011;9121;50.926;5.340;2023-05-25T14:04:33;12.30;;;5.03;;
17991;SDS011;9121;50.926;5.340;2023-05-25T14:07:00;29.42;;;5.05;;
17991;SDS011;9121;50.926;5.340;2023-05-25T14:09:27;20.80;;;5.63;;
17991;SDS011;9121;50.926;5.340;2023-05-25T14:11:54;16.63;;;5.32;;
17991;SDS011;9121;50.926;5.340;2023-05-25T14:14:20;28.40;;;6.03;;
17991;SDS011;9121;50.926;5.340;2023-05-25T14:16:49;12.32;;;5.00;;
17991;SDS011;9121;50.926;5.340;2023-05-25T14:19:16;15.95;;;5.63;;
17991;SDS011;9121;50.926;5.340;2023-05-25T14:21:43;14.18;;;5.43;;
17991;SDS011;9121;50.926;5.340;2023-05-25T14:24:10;15.68;;;4.90;;
17991;SDS011;9121;50.926;5.340;2023-05-25T14:26:37;17.17;;;4.95;;
17991;SDS011;9121;50.926;5.340;2023-05-25T14:29:05;10.70;;;5.47;;
17991;SDS011;9121;50.926;5.340;2023-05-25T14:31:32;17.38;;;5.32;;
17991;SDS011;9121;50.926;5.340;2023-05-25T14:34:00;16.40;;;4.90;;
17991;SDS011;9121;50.926;5.340;2023-05-25T14:36:27;17.60;;;5.03;;
17991;SDS011;9121;50.926;5.340;2023-05-25T14:38:55;13.63;;;4.43;;
17991;SDS011;9121;50.926;5.340;2023-05-25T14:41:22;11.95;;;4.72;;
17991;SDS011;9121;50.926;5.340;2023-05-25T14:43:50;14.60;;;4.72;;
17991;SDS011;9121;50.926;5.340;2023-05-25T14:46:16;10.55;;;4.80;;
17991;SDS011;9121;50.926;5.340;2023-05-25T14:48:44;19.05;;;5.80;;
17991;SDS011;9121;50.926;5.340;2023-05-25T14:51:12;12.85;;;5.28;;